createdAt,value
2018-05-31T00:14:59.194Z,100610
2018-05-31T00:20:58.877Z,100612
2018-05-31T00:26:58.836Z,100596
2018-05-31T00:35:58.577Z,100591
2018-05-31T00:44:59.121Z,100589
2018-05-31T00:53:59.185Z,100580
2018-05-31T00:59:59.045Z,100577
2018-05-31T01:05:58.667Z,100589
2018-05-31T01:14:59.664Z,100583
2018-05-31T01:17:59.127Z,100579
2018-05-31T01:26:58.984Z,100582
2018-05-31T01:32:58.940Z,100572
2018-05-31T01:38:58.497Z,100575
2018-05-31T01:51:00.548Z,100564
2018-05-31T01:53:58.965Z,100566
2018-05-31T01:59:58.926Z,100564
2018-05-31T02:05:58.936Z,100560
2018-05-31T02:11:58.580Z,100558
2018-05-31T02:24:00.130Z,100552
2018-05-31T02:26:59.111Z,100556
2018-05-31T02:32:58.925Z,100565
2018-05-31T02:44:59.398Z,100559
2018-05-31T02:47:58.583Z,100555
2018-05-31T02:59:59.399Z,100566
2018-05-31T03:08:59.268Z,100571
2018-05-31T03:14:59.048Z,100573
2018-05-31T03:20:58.624Z,100561
2018-05-31T03:32:59.228Z,100567
2018-05-31T03:38:59.104Z,100563
2018-05-31T03:44:58.873Z,100570
2018-05-31T03:56:58.544Z,100571
2018-05-31T04:08:59.344Z,100577
2018-05-31T04:14:59.023Z,100565
2018-05-31T04:20:58.624Z,100566
2018-05-31T04:32:59.216Z,100567
2018-05-31T04:50:58.814Z,100570
2018-05-31T04:59:59.060Z,100572
2018-05-31T05:08:58.928Z,100576
2018-05-31T05:17:59.256Z,100576
2018-05-31T05:23:59.012Z,100586
2018-05-31T05:44:59.318Z,100591
2018-05-31T05:53:59.219Z,100591
2018-05-31T06:11:58.725Z,100605
2018-05-31T06:23:59.144Z,100601
2018-05-31T06:26:49.487Z,100602
2018-05-31T06:33:00.644Z,100593
2018-05-31T06:35:59.486Z,100600
2018-05-31T06:44:59.282Z,100599
2018-05-31T06:53:58.894Z,100597
2018-05-31T07:02:58.767Z,100598
2018-05-31T07:14:58.796Z,100599
2018-05-31T07:26:58.904Z,100601
2018-05-31T07:35:59.084Z,100603
2018-05-31T07:47:59.075Z,100612
2018-05-31T07:53:58.911Z,100609
2018-05-31T08:05:58.813Z,100612
2018-05-31T08:14:59.244Z,100611
2018-05-31T08:23:58.792Z,100616
2018-05-31T08:26:27.058Z,100612
2018-05-31T08:29:01.443Z,100611
2018-05-31T08:31:29.792Z,100611
2018-05-31T08:33:58.009Z,100609
2018-05-31T08:36:26.383Z,100606
2018-05-31T08:38:54.664Z,100603
2018-05-31T08:41:23.740Z,100609
2018-05-31T08:43:52.760Z,100610
2018-05-31T08:46:21.126Z,100602
2018-05-31T08:48:49.382Z,100606
2018-05-31T08:51:34.701Z,100601
2018-05-31T08:54:03.052Z,100601
2018-05-31T08:56:31.275Z,100594
2018-05-31T08:58:59.512Z,100596
2018-05-31T09:01:27.941Z,100596
2018-05-31T09:03:56.229Z,100597
2018-05-31T09:06:25.249Z,100599
2018-05-31T09:08:53.472Z,100596
2018-05-31T09:11:21.796Z,100596
2018-05-31T09:13:50.076Z,100592
2018-05-31T09:16:18.790Z,100600
2018-05-31T09:18:47.372Z,100593
2018-05-31T09:21:15.719Z,100606
2018-05-31T09:23:44.000Z,100603
2018-05-31T09:26:12.229Z,100601
2018-05-31T09:28:40.554Z,100594
2018-05-31T09:31:08.854Z,100599
2018-05-31T09:34:00.738Z,100596
2018-05-31T09:36:29.777Z,100595
2018-05-31T09:39:01.243Z,100591
2018-05-31T09:41:29.487Z,100596
2018-05-31T09:43:57.752Z,100590
2018-05-31T09:46:25.962Z,100592
2018-05-31T09:49:00.812Z,100590
2018-05-31T09:51:29.056Z,100600
2018-05-31T09:53:57.335Z,100597
2018-05-31T09:56:25.678Z,100587
2018-05-31T09:58:53.901Z,100592
2018-05-31T10:10:29.420Z,100587
2018-05-31T10:13:01.624Z,100578
2018-05-31T10:15:29.895Z,100577
2018-05-31T10:18:02.182Z,100581
2018-05-31T10:20:58.755Z,100576
2018-05-31T10:53:02.949Z,100557
2018-05-31T10:55:59.195Z,100552
2018-05-31T11:07:28.848Z,100545
2018-05-31T11:25:00.870Z,100539
2018-05-31T11:28:00.419Z,100537
2018-05-31T11:30:59.224Z,100531
2018-05-31T11:39:59.299Z,100534
2018-05-31T11:45:59.133Z,100523
2018-05-31T12:01:00.644Z,100508
2018-05-31T12:03:28.908Z,100502
2018-05-31T12:05:57.152Z,100504
2018-05-31T12:08:26.260Z,100497
2018-05-31T12:10:54.441Z,100498
2018-05-31T12:13:22.709Z,100489
2018-05-31T12:15:50.989Z,100482
2018-05-31T12:18:19.263Z,100488
2018-05-31T12:20:47.484Z,100481
2018-05-31T12:23:15.751Z,100476
2018-05-31T12:25:43.986Z,100477
2018-05-31T12:28:12.202Z,100473
2018-05-31T12:30:40.467Z,100471
2018-05-31T12:33:08.679Z,100466
2018-05-31T12:35:36.905Z,100468
2018-05-31T12:38:05.160Z,100468
2018-05-31T12:40:33.384Z,100471
2018-05-31T12:43:01.602Z,100466
2018-05-31T12:45:29.875Z,100461
2018-05-31T12:47:58.863Z,100464
2018-05-31T12:50:27.871Z,100465
2018-05-31T12:52:56.149Z,100461
2018-05-31T12:55:24.371Z,100459
2018-05-31T12:57:52.580Z,100451
2018-05-31T13:00:21.623Z,100451
2018-05-31T13:02:49.853Z,100446
2018-05-31T13:05:18.842Z,100453
2018-05-31T13:07:48.052Z,100453
2018-05-31T13:10:16.315Z,100459
2018-05-31T13:12:45.319Z,100459
2018-05-31T13:15:13.596Z,100458
2018-05-31T13:17:41.806Z,100452
2018-05-31T13:20:10.027Z,100456
2018-05-31T13:23:00.032Z,100446
2018-05-31T13:25:28.375Z,100447
2018-05-31T13:27:59.244Z,100442
2018-05-31T13:30:33.035Z,100440
2018-05-31T13:33:02.022Z,100441
2018-05-31T13:35:32.765Z,100435
2018-05-31T13:38:08.710Z,100444
2018-05-31T13:40:59.826Z,100434
2018-05-31T13:43:28.936Z,100426
2018-05-31T13:48:54.400Z,100431
2018-05-31T13:51:22.622Z,100428
2018-05-31T13:53:51.611Z,100429
2018-05-31T13:56:20.732Z,100428
2018-05-31T13:58:48.938Z,100426
2018-05-31T14:01:17.148Z,100433
2018-05-31T14:04:00.408Z,100427
2018-05-31T14:06:28.632Z,100428
2018-05-31T14:08:56.928Z,100430
2018-05-31T14:11:25.956Z,100428
2018-05-31T14:13:54.223Z,100432
2018-05-31T14:16:22.486Z,100435
2018-05-31T14:18:51.493Z,100427
2018-05-31T14:21:20.520Z,100428
2018-05-31T14:23:48.747Z,100431
2018-05-31T14:26:17.846Z,100433
2018-05-31T14:28:59.943Z,100425
2018-05-31T14:31:28.960Z,100430
2018-05-31T14:33:57.213Z,100428
2018-05-31T14:36:26.203Z,100432
2018-05-31T14:38:55.298Z,100426
2018-05-31T14:41:24.287Z,100419
2018-05-31T14:43:53.300Z,100429
2018-05-31T14:46:21.556Z,100431
2018-05-31T14:48:50.539Z,100429
2018-05-31T14:51:19.533Z,100420
2018-05-31T14:53:48.560Z,100420
2018-05-31T14:56:44.969Z,100422
2018-05-31T14:59:14.065Z,100417
2018-05-31T15:01:43.072Z,100418
2018-05-31T15:04:11.395Z,100418
2018-05-31T15:06:39.717Z,100417
2018-05-31T15:09:08.810Z,100423
2018-05-31T15:11:37.788Z,100404
2018-05-31T15:14:06.814Z,100411
2018-05-31T15:16:35.048Z,100400
2018-05-31T15:19:03.365Z,100402
2018-05-31T15:21:31.626Z,100396
2018-05-31T15:24:00.636Z,100398
2018-05-31T15:26:28.856Z,100398
2018-05-31T15:28:57.107Z,100393
2018-05-31T15:31:25.326Z,100390
2018-05-31T15:33:53.636Z,100400
2018-05-31T15:36:21.891Z,100396
2018-05-31T15:39:01.103Z,100392
2018-05-31T15:41:29.734Z,100386
2018-05-31T15:43:57.956Z,100385
2018-05-31T15:46:26.264Z,100389
2018-05-31T15:48:55.346Z,100388
2018-05-31T15:51:24.369Z,100387
2018-05-31T15:53:52.631Z,100387
2018-05-31T15:56:21.721Z,100387
2018-05-31T15:59:00.892Z,100389
2018-05-31T16:01:29.162Z,100382
2018-05-31T16:03:57.402Z,100380
2018-05-31T16:09:26.662Z,100379
2018-05-31T16:11:54.899Z,100387
2018-05-31T16:14:23.921Z,100379
2018-05-31T16:16:52.173Z,100378
2018-05-31T16:19:20.386Z,100380
2018-05-31T16:21:48.594Z,100381
2018-05-31T16:24:16.839Z,100365
2018-05-31T16:27:00.350Z,100372
2018-05-31T16:29:28.608Z,100370
2018-05-31T16:31:56.886Z,100373
2018-05-31T16:34:25.113Z,100376
2018-05-31T16:36:53.363Z,100362
2018-05-31T16:39:21.579Z,100369
2018-05-31T16:41:50.136Z,100362
2018-05-31T16:44:18.468Z,100365
2018-05-31T16:46:46.678Z,100365
2018-05-31T16:52:15.382Z,100370
2018-05-31T16:55:00.885Z,100362
2018-05-31T16:57:29.312Z,100353
2018-05-31T16:59:57.520Z,100366
2018-05-31T17:02:25.756Z,100360
2018-05-31T17:04:54.003Z,100367
2018-05-31T17:07:22.211Z,100360
2018-05-31T17:10:02.835Z,100369
2018-05-31T17:12:31.153Z,100368
2018-05-31T17:14:59.443Z,100364
2018-05-31T17:17:27.693Z,100366
2018-05-31T17:19:56.692Z,100368
2018-05-31T17:22:24.907Z,100360
2018-05-31T17:24:53.192Z,100363
2018-05-31T17:27:21.475Z,100371
2018-05-31T17:30:02.663Z,100371
2018-05-31T17:32:30.944Z,100369
2018-05-31T17:34:59.129Z,100372
2018-05-31T17:37:28.642Z,100367
2018-05-31T17:39:57.592Z,100368
2018-05-31T17:42:25.873Z,100370
2018-05-31T17:44:54.095Z,100370
2018-05-31T17:47:22.291Z,100364
2018-05-31T17:49:50.492Z,100368
2018-05-31T17:55:19.720Z,100370
2018-05-31T17:57:47.881Z,100374
2018-05-31T18:00:16.182Z,100372
2018-05-31T18:02:45.366Z,100370
2018-05-31T18:05:13.604Z,100369
2018-05-31T18:07:41.773Z,100380
2018-05-31T18:10:10.098Z,100375
2018-05-31T18:13:00.271Z,100373
2018-05-31T18:15:28.562Z,100377
2018-05-31T18:17:56.825Z,100377
2018-05-31T18:20:25.106Z,100371
2018-05-31T18:22:53.488Z,100371
2018-05-31T18:25:21.694Z,100385
2018-05-31T18:28:05.791Z,100379
2018-05-31T18:30:34.047Z,100381
2018-05-31T18:33:02.332Z,100379
2018-05-31T18:35:30.525Z,100388
2018-05-31T18:37:58.800Z,100384
2018-05-31T18:40:27.918Z,100379
2018-05-31T18:42:57.024Z,100387
2018-05-31T18:45:26.085Z,100394
2018-05-31T18:51:03.026Z,100402
2018-05-31T18:56:30.792Z,100409
2018-05-31T18:58:59.744Z,100414
2018-05-31T19:01:28.041Z,100421
2018-05-31T19:03:57.748Z,100416
2018-05-31T19:06:25.957Z,100417
2018-05-31T19:09:01.730Z,100423
2018-05-31T19:11:29.950Z,100429
2018-05-31T19:13:59.030Z,100436
2018-05-31T19:19:34.090Z,100444
2018-05-31T19:22:02.289Z,100450
2018-05-31T19:24:36.822Z,100457
2018-05-31T19:27:05.775Z,100460
2018-05-31T19:29:33.973Z,100461
2018-05-31T19:32:02.174Z,100464
2018-05-31T19:34:30.421Z,100464
2018-05-31T19:37:05.129Z,100472
2018-05-31T19:39:33.310Z,100468
2018-05-31T19:42:01.581Z,100469
2018-05-31T19:44:59.766Z,100469
2018-05-31T19:47:28.041Z,100466
2018-05-31T20:06:16.802Z,100480
2018-05-31T20:09:01.969Z,100472
2018-05-31T20:11:30.187Z,100480
2018-05-31T20:13:58.431Z,100469
2018-05-31T20:16:26.628Z,100475
2018-05-31T20:21:36.353Z,100474
2018-05-31T20:24:04.530Z,100478
2018-05-31T20:26:59.574Z,100476
2018-05-31T20:29:28.785Z,100476
2018-05-31T20:31:56.972Z,100476
2018-05-31T20:34:25.286Z,100479
2018-05-31T20:36:54.269Z,100479
2018-05-31T20:39:22.481Z,100480
2018-05-31T20:41:51.453Z,100480
2018-05-31T20:44:20.434Z,100479
2018-05-31T20:47:01.101Z,100481
2018-05-31T20:49:29.373Z,100481
2018-05-31T20:51:57.579Z,100483
2018-05-31T20:57:26.750Z,100485
2018-05-31T20:59:54.953Z,100485
2018-05-31T21:02:23.227Z,100482
2018-05-31T21:04:52.274Z,100482
2018-05-31T21:07:20.481Z,100488
2018-05-31T21:09:48.832Z,100480
2018-05-31T21:12:17.058Z,100492
2018-05-31T21:15:00.536Z,100484
2018-05-31T21:17:29.559Z,100487
2018-05-31T21:19:57.762Z,100491
2018-05-31T21:22:26.843Z,100492
2018-05-31T21:24:55.076Z,100494
2018-05-31T21:27:23.253Z,100495
2018-05-31T21:30:02.196Z,100502
2018-05-31T21:32:30.495Z,100502
2018-05-31T21:34:58.774Z,100503
2018-05-31T21:40:28.506Z,100498
2018-05-31T21:43:01.270Z,100494
2018-05-31T21:45:29.553Z,100494
2018-05-31T21:47:58.044Z,100498
2018-05-31T21:53:27.554Z,100494
2018-05-31T21:55:55.739Z,100497
2018-05-31T21:58:23.927Z,100494
2018-05-31T22:00:56.717Z,100497
2018-05-31T22:03:24.956Z,100496
2018-05-31T22:06:00.605Z,100489
2018-05-31T22:08:28.877Z,100497
2018-05-31T22:11:03.287Z,100494
2018-05-31T22:13:31.471Z,100496
2018-05-31T22:15:59.662Z,100496
2018-05-31T22:21:40.956Z,100498
2018-05-31T22:24:16.253Z,100494
2018-05-31T22:26:46.309Z,100495
2018-05-31T22:29:20.641Z,100488
2018-05-31T22:31:54.434Z,100487
2018-05-31T22:34:37.030Z,100490
2018-05-31T22:37:15.207Z,100493
2018-05-31T22:39:44.786Z,100488
2018-05-31T22:45:22.768Z,100486
2018-05-31T22:47:55.089Z,100485
2018-05-31T22:56:27.110Z,100487
2018-05-31T22:58:55.297Z,100481
2018-05-31T23:01:25.672Z,100476
2018-05-31T23:03:54.741Z,100472
2018-05-31T23:09:23.936Z,100470
2018-05-31T23:11:52.454Z,100465
2018-05-31T23:14:23.897Z,100473
2018-05-31T23:16:52.080Z,100469
2018-05-31T23:19:23.173Z,100468
2018-05-31T23:22:05.548Z,100466
2018-05-31T23:25:07.654Z,100462
2018-05-31T23:28:08.908Z,100471
2018-05-31T23:31:08.794Z,100464
2018-05-31T23:38:48.714Z,100464
2018-05-31T23:41:18.316Z,100457
2018-05-31T23:43:47.325Z,100454
2018-05-31T23:46:15.596Z,100462
2018-05-31T23:49:00.768Z,100458
2018-05-31T23:51:29.048Z,100454
2018-05-31T23:53:58.022Z,100445
2018-05-31T23:56:26.242Z,100449
2018-05-31T23:58:55.185Z,100454
